Time;durP1;ratioP1;P1;durP2;ratioP2;P2;SDS_P1;SDS_P2;PMS_P1;PMS_P2;Temp;Humidity;BMP_temperature;BMP_pressure;BME280_temperature;BME280_humidity;BME280_pressure;Samples;Min_cycle;Max_cycle;Signal;HPM_P1;HPM_P2
2023/07/06 00:00:11;;;;;;;33.65;11.98;;;25.10;96.60;;;;;;5050787;28;20040;-73
2023/07/06 00:03:18;;;;;;;20.63;11.32;;;25.10;96.50;;;;;;5050856;28;20060;-72
2023/07/06 00:06:23;;;;;;;19.02;11.10;;;25.10;96.40;;;;;;5050777;28;20052;-73
2023/07/06 00:09:26;;;;;;;17.77;10.05;;;25.00;96.70;;;;;;5050967;28;20397;-73
2023/07/06 00:12:30;;;;;;;21.67;9.82;;;24.90;96.60;;;;;;5050789;28;20059;-73
2023/07/06 00:15:34;;;;;;;17.70;9.70;;;24.90;96.50;;;;;;5051574;28;20048;-72
2023/07/06 00:18:39;;;;;;;15.77;9.77;;;24.90;96.40;;;;;;5049807;28;20059;-72
2023/07/06 00:21:43;;;;;;;18.50;9.65;;;24.90;96.50;;;;;;5050552;28;20043;-72
2023/07/06 00:24:48;;;;;;;17.27;9.65;;;24.90;96.40;;;;;;5050782;28;20397;-72
2023/07/06 00:27:54;;;;;;;18.08;9.93;;;24.80;96.30;;;;;;5050580;28;20052;-73
2023/07/06 00:31:03;;;;;;;19.13;9.43;;;24.70;96.40;;;;;;5050858;28;20068;-72
2023/07/06 00:34:08;;;;;;;18.05;9.57;;;24.60;96.50;;;;;;5050114;28;20378;-72
2023/07/06 00:37:12;;;;;;;17.20;9.45;;;24.60;96.40;;;;;;5050646;28;20400;-72
2023/07/06 00:40:17;;;;;;;16.20;9.73;;;24.50;96.80;;;;;;5050675;28;20052;-73
2023/07/06 00:43:23;;;;;;;14.02;9.63;;;24.50;96.70;;;;;;5050133;28;20048;-72
2023/07/06 00:46:36;;;;;;;14.57;9.30;;;24.50;96.80;;;;;;5038036;28;20041;-73
2023/07/06 00:49:41;;;;;;;20.10;9.52;;;24.40;96.70;;;;;;5050299;28;20048;-72
2023/07/06 00:52:58;;;;;;;14.50;9.70;;;24.40;96.90;;;;;;5050791;28;20392;-72
2023/07/06 00:56:02;;;;;;;18.77;9.25;;;24.40;96.80;;;;;;5049654;28;20504;-73
2023/07/06 00:59:09;;;;;;;17.75;8.65;;;24.40;96.90;;;;;;5038170;28;20052;-73
2023/07/06 01:02:16;;;;;;;19.13;9.50;;;24.30;97.00;;;;;;5049422;28;20040;-73
2023/07/06 01:05:23;;;;;;;17.13;9.25;;;24.30;97.00;;;;;;5050276;28;20036;-73
2023/07/06 01:08:28;;;;;;;17.98;9.98;;;24.30;96.80;;;;;;5049269;28;20119;-73
2023/07/06 01:11:35;;;;;;;23.33;9.80;;;24.30;97.40;;;;;;5051888;28;20052;-73
2023/07/06 01:14:41;;;;;;;21.25;9.43;;;24.10;97.00;;;;;;5053182;28;20044;-73
2023/07/06 01:17:53;;;;;;;16.08;9.95;;;24.00;97.50;;;;;;5053895;28;20048;-73
2023/07/06 01:21:11;;;;;;;19.48;10.25;;;24.00;97.70;;;;;;5052966;28;20397;-73
2023/07/06 01:24:41;;;;;;;17.90;9.73;;;24.00;97.70;;;;;;5053578;28;20052;-73
2023/07/06 01:27:51;;;;;;;18.98;9.52;;;24.10;97.60;;;;;;5053339;28;20503;-73
2023/07/06 01:30:54;;;;;;;21.85;9.80;;;24.00;97.50;;;;;;5053454;28;20056;-73
2023/07/06 01:34:25;;;;;;;14.82;9.25;;;24.00;97.50;;;;;;5052878;28;20044;-73
2023/07/06 01:37:32;;;;;;;;;;;24.00;97.40;;;;;;5054026;28;20052;-73
2023/07/06 01:40:36;;;;;;;16.02;9.02;;;24.00;97.40;;;;;;5052812;28;19916;-73
2023/07/06 01:43:39;;;;;;;18.00;10.10;;;24.00;97.40;;;;;;5053478;28;20047;-73
2023/07/06 01:46:52;;;;;;;18.02;9.45;;;24.00;97.40;;;;;;5053414;28;20048;-73
2023/07/06 01:49:58;;;;;;;15.45;9.40;;;23.80;97.60;;;;;;5053188;28;20068;-73
2023/07/06 01:53:08;;;;;;;17.90;9.90;;;23.80;97.90;;;;;;5052514;28;20047;-73
2023/07/06 01:56:28;;;;;;;16.23;9.80;;;23.90;97.70;;;;;;5052898;28;20567;-73
2023/07/06 01:59:35;;;;;;;25.65;10.18;;;23.90;97.70;;;;;;5052332;28;20052;-73
2023/07/06 02:02:43;;;;;;;19.83;10.13;;;23.80;97.80;;;;;;5053222;28;20079;-73
2023/07/06 02:05:48;;;;;;;20.70;10.02;;;23.80;97.80;;;;;;5040682;28;20044;-74
2023/07/06 02:08:52;;;;;;;17.08;9.75;;;23.80;97.90;;;;;;5053030;28;20044;-72
2023/07/06 02:11:57;;;;;;;16.45;9.10;;;23.80;97.90;;;;;;5051837;28;20410;-72
2023/07/06 02:15:01;;;;;;;17.92;9.60;;;23.80;97.60;;;;;;5052690;28;20044;-72
2023/07/06 02:18:05;;;;;;;17.50;9.52;;;23.90;97.40;;;;;;5052880;28;20507;-72
2023/07/06 02:21:09;;;;;;;18.70;10.20;;;23.80;97.40;;;;;;5051776;28;20052;-72
2023/07/06 02:24:13;;;;;;;14.65;9.48;;;23.80;97.30;;;;;;5051665;28;20437;-72
2023/07/06 02:27:17;;;;;;;17.42;9.02;;;23.70;97.40;;;;;;5052346;28;20044;-72
2023/07/06 02:30:21;;;;;;;12.38;8.63;;;23.70;97.40;;;;;;5052316;28;20500;-73
2023/07/06 02:33:33;;;;;;;14.40;8.77;;;23.60;97.60;;;;;;5052483;28;20047;-73
2023/07/06 02:36:38;;;;;;;16.50;9.32;;;23.70;97.40;;;;;;5051531;28;20617;-72
2023/07/06 02:39:41;;;;;;;16.33;9.00;;;23.60;97.50;;;;;;5052370;28;20088;-72
2023/07/06 02:42:45;;;;;;;17.45;8.52;;;23.60;97.50;;;;;;5052315;28;20516;-73
2023/07/06 02:45:49;;;;;;;20.15;8.88;;;23.60;97.40;;;;;;5052162;28;20043;-72
2023/07/06 02:48:54;;;;;;;15.10;8.40;;;23.60;97.40;;;;;;5051358;28;20048;-72
2023/07/06 02:52:00;;;;;;;12.85;8.70;;;23.60;97.30;;;;;;5051017;28;20060;-72
2023/07/06 02:55:05;;;;;;;15.95;9.18;;;23.60;97.40;;;;;;5051769;28;20103;-72
2023/07/06 02:58:09;;;;;;;16.90;8.77;;;23.60;97.40;;;;;;5039693;28;20056;-73
2023/07/06 03:01:15;;;;;;;15.05;8.88;;;23.60;97.30;;;;;;5051246;28;20047;-72
2023/07/06 03:04:20;;;;;;;16.80;9.38;;;23.50;97.60;;;;;;5051112;28;20039;-73
2023/07/06 03:07:25;;;;;;;17.42;8.77;;;23.40;97.80;;;;;;5051706;28;20043;-72
2023/07/06 03:10:31;;;;;;;19.55;9.52;;;23.40;97.80;;;;;;5052119;28;20048;-72
2023/07/06 03:13:35;;;;;;;15.50;9.23;;;23.40;97.60;;;;;;5050579;28;20048;-73
2023/07/06 03:16:41;;;;;;;15.30;8.27;;;23.50;97.70;;;;;;5051459;28;20385;-72
2023/07/06 03:19:45;;;;;;;14.23;8.43;;;23.40;97.70;;;;;;5051421;28;20052;-72
2023/07/06 03:22:51;;;;;;;16.05;9.15;;;23.40;97.70;;;;;;5051678;28;20044;-72
2023/07/06 03:25:56;;;;;;;17.33;8.85;;;23.40;97.80;;;;;;5051521;28;20044;-73
2023/07/06 03:29:03;;;;;;;15.63;8.55;;;23.40;97.60;;;;;;5050752;28;20528;-73
2023/07/06 03:32:08;;;;;;;14.88;8.60;;;23.50;97.60;;;;;;5050289;28;20071;-72
2023/07/06 03:35:13;;;;;;;13.80;8.13;;;23.50;97.70;;;;;;5050796;28;20040;-72
2023/07/06 03:38:17;;;;;;;13.73;8.73;;;23.50;97.70;;;;;;5051340;28;20048;-72
2023/07/06 03:41:21;;;;;;;14.65;8.60;;;23.40;97.70;;;;;;5050169;28;20044;-72
2023/07/06 03:44:25;;;;;;;18.05;10.30;;;23.40;97.90;;;;;;5050027;28;20040;-72
2023/07/06 03:47:29;;;;;;;14.38;8.80;;;23.20;98.10;;;;;;5051083;28;20048;-73
2023/07/06 03:50:34;;;;;;;20.70;12.45;;;23.20;98.70;;;;;;5051013;28;20072;-73
2023/07/06 03:53:37;;;;;;;19.02;11.15;;;23.30;98.60;;;;;;5050684;28;20531;-71
2023/07/06 03:56:42;;;;;;;19.35;10.73;;;23.30;98.30;;;;;;5049793;28;20047;-72
2023/07/06 03:59:46;;;;;;;18.80;10.68;;;23.40;98.50;;;;;;5050881;28;20504;-73
2023/07/06 04:02:52;;;;;;;24.20;11.57;;;23.50;98.30;;;;;;5050433;28;20064;-72
2023/07/06 04:05:57;;;;;;;23.55;11.48;;;23.50;98.30;;;;;;5050687;28;20044;-73
2023/07/06 04:09:03;;;;;;;19.98;10.35;;;23.40;98.20;;;;;;5051059;28;20044;-73
2023/07/06 04:12:07;;;;;;;16.17;9.90;;;23.40;98.20;;;;;;5050706;28;20060;-72
2023/07/06 04:15:11;;;;;;;19.40;9.38;;;23.40;98.50;;;;;;5050650;28;20041;-73
2023/07/06 04:18:16;;;;;;;14.00;8.38;;;23.50;98.30;;;;;;5050564;28;20060;-72
2023/07/06 04:21:21;;;;;;;16.83;8.80;;;23.50;98.00;;;;;;5050955;28;20052;-72
2023/07/06 04:24:31;;;;;;;16.98;8.40;;;23.40;97.80;;;;;;5050968;28;20044;-73
2023/07/06 04:27:35;;;;;;;13.82;7.65;;;23.40;98.00;;;;;;5050333;28;20044;-73
2023/07/06 04:30:42;;;;;;;15.20;8.55;;;23.40;97.80;;;;;;5050503;28;20044;-73
2023/07/06 04:33:46;;;;;;;24.48;10.05;;;23.40;98.20;;;;;;5038681;28;20039;-73
2023/07/06 04:36:50;;;;;;;19.80;7.85;;;23.40;97.90;;;;;;5049555;28;20040;-73
2023/07/06 04:39:54;;;;;;;21.20;8.48;;;23.50;97.90;;;;;;5050451;28;20044;-72
2023/07/06 04:42:59;;;;;;;15.70;6.95;;;23.60;97.80;;;;;;5050470;28;20040;-72
2023/07/06 04:46:03;;;;;;;19.52;8.15;;;23.90;97.80;;;;;;5051705;28;20052;-72
2023/07/06 04:49:07;;;;;;;25.67;7.43;;;24.20;96.80;;;;;;5053697;28;20527;-72
2023/07/06 04:52:11;;;;;;;19.15;6.97;;;24.30;96.50;;;;;;5054208;28;20515;-73
2023/07/06 04:55:22;;;;;;;24.75;7.65;;;24.50;96.20;;;;;;5054089;28;20060;-73
2023/07/06 04:58:28;;;;;;;24.88;8.15;;;24.60;96.20;;;;;;5054360;28;20043;-73
2023/07/06 05:01:32;;;;;;;29.00;8.68;;;24.60;96.20;;;;;;5054031;28;20032;-71
2023/07/06 05:04:42;;;;;;;25.52;8.10;;;24.60;96.40;;;;;;5053972;28;20048;-71
2023/07/06 05:07:46;;;;;;;45.70;9.55;;;24.70;96.70;;;;;;5053975;28;20052;-72
2023/07/06 05:10:52;;;;;;;25.83;7.97;;;24.80;96.50;;;;;;5053644;28;20405;-72
2023/07/06 05:13:57;;;;;;;32.50;8.25;;;25.00;96.60;;;;;;5053944;28;20052;-72
2023/07/06 05:17:01;;;;;;;25.55;8.60;;;25.30;96.10;;;;;;5052998;28;20040;-70
2023/07/06 05:20:14;;;;;;;43.65;8.40;;;25.50;95.80;;;;;;5052662;28;20063;-71
2023/07/06 05:23:19;;;;;;;19.75;7.70;;;25.60;95.50;;;;;;5053959;28;20056;-71
2023/07/06 05:26:24;;;;;;;18.58;7.45;;;25.60;95.40;;;;;;5053736;28;20036;-72
2023/07/06 05:29:28;;;;;;;22.02;7.57;;;25.70;95.70;;;;;;5053339;28;20040;-72
2023/07/06 05:32:32;;;;;;;27.35;8.82;;;25.90;95.50;;;;;;5053389;28;20060;-71
2023/07/06 05:35:36;;;;;;;21.88;8.38;;;26.10;95.30;;;;;;5053256;28;20035;-71
2023/07/06 05:38:40;;;;;;;22.48;9.55;;;26.30;95.30;;;;;;5053568;28;20052;-71
2023/07/06 05:41:44;;;;;;;33.22;15.07;;;26.40;95.20;;;;;;5053068;28;20043;-70
2023/07/06 05:44:50;;;;;;;46.80;19.63;;;26.60;95.10;;;;;;5053432;28;20052;-71
2023/07/06 05:47:54;;;;;;;44.83;25.08;;;26.60;95.10;;;;;;5053221;28;20048;-71
2023/07/06 05:50:58;;;;;;;40.25;22.98;;;26.60;95.20;;;;;;5053068;28;20052;-72
2023/07/06 05:54:02;;;;;;;46.85;22.00;;;26.60;95.40;;;;;;5053354;28;20048;-71
2023/07/06 05:57:08;;;;;;;25.70;11.68;;;26.80;95.10;;;;;;5052672;28;20040;-70
2023/07/06 06:00:15;;;;;;;18.20;9.20;;;26.90;94.60;;;;;;5053251;28;20123;-70
2023/07/06 06:03:19;;;;;;;16.95;10.38;;;27.10;94.70;;;;;;5052903;28;20512;-70
2023/07/06 06:06:26;;;;;;;15.65;8.07;;;27.30;94.00;;;;;;5052963;28;20044;-70
2023/07/06 06:09:30;;;;;;;26.65;8.00;;;27.40;94.00;;;;;;5052663;28;20044;-71
2023/07/06 06:12:35;;;;;;;15.15;7.45;;;27.50;94.00;;;;;;5051671;28;20067;-70
2023/07/06 06:15:40;;;;;;;17.83;8.15;;;27.60;93.90;;;;;;5052440;28;20044;-74
2023/07/06 06:18:45;;;;;;;16.13;7.88;;;27.70;94.00;;;;;;5051417;28;20108;-72
2023/07/06 06:21:49;;;;;;;16.77;7.10;;;27.80;93.70;;;;;;5052289;28;20657;-73
2023/07/06 06:24:53;;;;;;;18.85;6.78;;;27.80;93.90;;;;;;5052405;28;20402;-73
2023/07/06 06:27:57;;;;;;;15.57;6.70;;;28.10;93.80;;;;;;5040079;28;20036;-71
2023/07/06 06:31:01;;;;;;;13.23;6.47;;;28.20;93.20;;;;;;5051452;28;20047;-72
2023/07/06 06:34:05;;;;;;;14.30;6.70;;;28.40;92.90;;;;;;5052579;28;20055;-72
2023/07/06 06:37:09;;;;;;;17.33;6.20;;;28.60;92.40;;;;;;5052119;28;20040;-75
2023/07/06 06:40:13;;;;;;;15.30;6.45;;;28.70;92.10;;;;;;5052257;28;20397;-73
2023/07/06 06:43:17;;;;;;;13.20;6.82;;;29.00;91.80;;;;;;5051987;28;20306;-72
2023/07/06 06:46:21;;;;;;;10.55;5.82;;;29.20;91.50;;;;;;5051904;28;20096;-73
2023/07/06 06:49:25;;;;;;;19.10;6.97;;;29.30;91.30;;;;;;5052010;28;20047;-73
2023/07/06 06:52:29;;;;;;;14.25;8.18;;;29.50;90.90;;;;;;5050970;28;20060;-72
2023/07/06 06:55:33;;;;;;;9.13;5.65;;;29.70;91.00;;;;;;5051939;28;20048;-72
2023/07/06 06:58:37;;;;;;;11.25;6.07;;;29.90;90.40;;;;;;5052054;28;20043;-72
2023/07/06 07:02:01;;;;;;;16.30;6.13;;;30.10;90.30;;;;;;5051495;28;20036;-72
2023/07/06 07:05:06;;;;;;;41.90;9.55;;;30.30;90.20;;;;;;5050999;28;20052;-73
2023/07/06 07:08:10;;;;;;;13.55;6.68;;;30.60;89.40;;;;;;5050705;28;20048;-71
2023/07/06 07:11:18;;;;;;;17.67;7.05;;;30.70;88.30;;;;;;5051498;28;20056;-73
2023/07/06 07:14:22;;;;;;;16.95;6.57;;;30.40;88.70;;;;;;5039180;28;20048;-73
2023/07/06 07:17:27;;;;;;;15.70;6.82;;;30.30;89.20;;;;;;5051411;28;20039;-72
2023/07/06 07:20:31;;;;;;;18.63;6.90;;;30.40;89.60;;;;;;5051039;28;20072;-72
2023/07/06 07:23:47;;;;;;;14.75;6.45;;;30.80;89.00;;;;;;5051204;28;20040;-72
2023/07/06 07:26:50;;;;;;;17.20;10.20;;;31.20;87.40;;;;;;5051243;28;20051;-72
2023/07/06 07:29:55;;;;;;;34.65;10.50;;;31.20;87.30;;;;;;5051369;28;20044;-72
2023/07/06 07:32:59;;;;;;;106.07;22.38;;;31.10;87.80;;;;;;5051163;28;20056;-72
2023/07/06 07:36:04;;;;;;;50.90;11.93;;;30.80;88.60;;;;;;5051095;28;20044;-72
2023/07/06 07:39:08;;;;;;;32.65;8.48;;;30.60;89.30;;;;;;5051201;28;20645;-74
2023/07/06 07:42:13;;;;;;;26.98;6.63;;;30.30;89.60;;;;;;5050525;28;20369;-72
2023/07/06 07:45:18;;;;;;;23.95;6.10;;;30.00;90.20;;;;;;5051232;28;20507;-73
2023/07/06 07:48:26;;;;;;;17.20;6.68;;;30.40;90.10;;;;;;5050097;28;20036;-74
2023/07/06 07:51:31;;;;;;;16.17;5.97;;;30.80;89.00;;;;;;5049910;28;20055;-72
2023/07/06 07:54:35;;;;;;;21.40;5.78;;;31.30;87.30;;;;;;5050979;28;20047;-74
2023/07/06 07:57:39;;;;;;;24.85;5.47;;;31.60;86.20;;;;;;5051229;28;20044;-73
2023/07/06 08:00:48;;;;;;;12.27;4.97;;;31.70;86.00;;;;;;5050827;28;20040;-73
2023/07/06 08:03:54;;;;;;;15.35;5.78;;;31.70;85.90;;;;;;5050959;28;20040;-73
2023/07/06 08:06:58;;;;;;;12.27;5.18;;;31.60;85.60;;;;;;5050810;28;20055;-72
2023/07/06 08:10:02;;;;;;;11.32;4.88;;;31.50;85.40;;;;;;5050787;28;20044;-72
2023/07/06 08:13:09;;;;;;;21.90;5.53;;;31.30;86.00;;;;;;5050595;28;20075;-73
2023/07/06 08:16:13;;;;;;;18.95;5.72;;;31.30;85.70;;;;;;5050408;28;20103;-73
2023/07/06 08:19:17;;;;;;;14.23;4.93;;;31.20;86.10;;;;;;5050547;28;20048;-73
2023/07/06 08:22:22;;;;;;;380.23;28.30;;;31.00;86.30;;;;;;5054005;28;20040;-73
2023/07/06 08:25:28;;;;;;;14.65;5.72;;;31.20;86.80;;;;;;5054852;28;20048;-73
2023/07/06 08:28:31;;;;;;;10.73;5.38;;;31.70;85.80;;;;;;5054740;28;20044;-74
2023/07/06 08:31:35;;;;;;;21.52;5.88;;;32.10;84.80;;;;;;5054024;28;20067;-73
2023/07/06 08:34:39;;;;;;;14.43;5.38;;;32.50;83.90;;;;;;5054729;28;20044;-72
2023/07/06 08:37:44;;;;;;;7.38;4.40;;;32.70;82.40;;;;;;5053471;28;20044;-73
2023/07/06 08:40:51;;;;;;;10.40;5.05;;;32.70;81.60;;;;;;5054094;28;20052;-74
2023/07/06 08:44:02;;;;;;;12.70;5.28;;;32.70;81.80;;;;;;5051579;28;20408;-74
2023/07/06 08:47:13;;;;;;;11.20;5.07;;;32.80;81.70;;;;;;5054050;28;20056;-74
2023/07/06 08:50:28;;;;;;;18.88;6.15;;;33.00;82.20;;;;;;5053730;28;20044;-75
2023/07/06 08:53:34;;;;;;;12.52;4.95;;;33.10;80.60;;;;;;5053414;28;20056;-73
2023/07/06 08:56:38;;;;;;;20.60;6.63;;;33.00;80.40;;;;;;5054044;28;20052;-75
2023/07/06 08:59:44;;;;;;;14.68;4.90;;;33.70;79.70;;;;;;5054295;28;20044;-73
2023/07/06 09:02:50;;;;;;;8.80;4.50;;;34.70;77.60;;;;;;5054967;28;20048;-74
2023/07/06 09:05:56;;;;;;;16.50;4.82;;;35.40;76.60;;;;;;5053659;28;20047;-75
2023/07/06 09:09:01;;;;;;;16.05;4.95;;;35.60;75.00;;;;;;5054235;28;20048;-74
2023/07/06 09:12:18;;;;;;;15.70;5.60;;;35.70;74.80;;;;;;5053964;28;20541;-70
2023/07/06 09:15:29;;;;;;;9.35;4.70;;;35.80;74.70;;;;;;5052664;28;20036;-74
2023/07/06 09:18:33;;;;;;;10.00;4.20;;;36.20;74.00;;;;;;5054273;28;20381;-74
2023/07/06 09:21:38;;;;;;;10.43;4.75;;;36.30;73.00;;;;;;5054094;28;20068;-72
2023/07/06 09:24:45;;;;;;;13.20;4.30;;;36.60;72.60;;;;;;5053007;28;20048;-72
2023/07/06 09:27:50;;;;;;;10.63;4.30;;;36.80;72.60;;;;;;5053601;28;20032;-72
2023/07/06 09:31:18;;;;;;;10.73;4.63;;;37.10;71.40;;;;;;5052922;28;20055;-72
2023/07/06 09:34:28;;;;;;;12.02;5.20;;;37.00;70.60;;;;;;5053605;28;20063;-75
2023/07/06 09:37:32;;;;;;;16.35;5.00;;;37.00;71.00;;;;;;5053395;28;20060;-74
2023/07/06 09:40:37;;;;;;;14.23;5.07;;;36.80;70.80;;;;;;5052897;28;20103;-77
2023/07/06 09:43:41;;;;;;;11.15;4.50;;;37.00;70.80;;;;;;5054151;28;20048;-74
2023/07/06 09:46:45;;;;;;;11.30;4.50;;;36.70;71.30;;;;;;5051523;28;20044;-73
2023/07/06 09:50:04;;;;;;;14.38;4.78;;;36.40;72.40;;;;;;5053803;28;20048;-81
2023/07/06 09:53:26;;;;;;;8.55;4.53;;;36.70;72.30;;;;;;5040865;28;20405;-79
2023/07/06 09:56:31;;;;;;;15.75;5.40;;;36.20;72.40;;;;;;5054536;28;20051;-86
2023/07/06 09:59:44;;;;;;;11.18;4.43;;;35.70;73.50;;;;;;5054696;28;20071;-80
2023/07/06 10:03:21;;;;;;;12.32;5.05;;;35.10;74.50;;;;;;5052392;28;20108;-79
2023/07/06 10:06:38;;;;;;;8.70;5.18;;;34.80;75.60;;;;;;5046305;28;20120;-81
2023/07/06 10:09:50;;;;;;;9.40;4.88;;;34.70;75.80;;;;;;5051973;28;20496;-80
2023/07/06 10:12:54;;;;;;;9.95;4.82;;;34.60;76.80;;;;;;5052399;28;20056;-79
2023/07/06 10:16:16;;;;;;;15.18;5.32;;;34.30;76.00;;;;;;5052427;28;20048;-80
2023/07/06 10:19:43;;;;;;;20.25;6.43;;;34.20;77.40;;;;;;5052626;28;20512;-79
2023/07/06 10:22:50;;;;;;;12.25;5.28;;;34.10;77.80;;;;;;5052706;28;20052;-80
2023/07/06 10:26:07;;;;;;;11.68;5.38;;;34.10;77.60;;;;;;5052660;28;20048;-82
2023/07/06 10:29:23;;;;;;;14.70;5.82;;;34.10;78.40;;;;;;5052795;28;20048;-79
2023/07/06 10:32:34;;;;;;;12.00;4.88;;;34.00;77.80;;;;;;5052874;28;20056;-81
2023/07/06 10:35:45;;;;;;;;;;;33.90;78.10;;;;;;5055083;28;20035;-77
2023/07/06 10:38:50;;;;;;;8.75;5.00;;;33.80;78.00;;;;;;5054563;28;19920;-79
2023/07/06 10:42:04;;;;;;;9.18;5.22;;;33.70;78.60;;;;;;5054976;28;20060;-80
2023/07/06 10:45:43;;;;;;;9.65;5.00;;;33.60;78.60;;;;;;5053094;28;20040;-79
2023/07/06 10:48:54;;;;;;;8.40;4.20;;;33.60;79.10;;;;;;5052568;28;20055;-79
2023/07/06 10:52:00;;;;;;;10.65;4.53;;;33.50;80.00;;;;;;5053409;28;20052;-83
2023/07/06 10:55:25;;;;;;;11.88;4.82;;;33.40;79.70;;;;;;5053211;28;20051;-80
2023/07/06 10:58:45;;;;;;;8.35;4.38;;;33.40;79.80;;;;;;5053370;28;20155;-80
2023/07/06 11:02:00;;;;;;;;;;;33.20;80.10;;;;;;5051155;28;20044;-82
2023/07/06 11:05:15;;;;;;;10.77;5.15;;;33.20;80.70;;;;;;5051197;28;19916;-81
2023/07/06 11:08:58;;;;;;;7.78;4.53;;;33.20;80.30;;;;;;5051350;28;20048;-79
2023/07/06 11:12:04;;;;;;;18.17;4.82;;;33.10;80.90;;;;;;5050356;28;20052;-80
2023/07/06 11:15:21;;;;;;;10.95;4.20;;;33.00;81.20;;;;;;5051343;28;20063;-81
2023/07/06 11:18:37;;;;;;;8.70;4.43;;;33.00;81.00;;;;;;5052015;28;20048;-82
2023/07/06 11:21:47;;;;;;;9.25;3.85;;;32.90;80.90;;;;;;5051681;28;20048;-80
2023/07/06 11:24:59;;;;;;;6.65;3.78;;;32.90;81.20;;;;;;5053683;28;20653;-81
2023/07/06 11:28:07;;;;;;;10.77;3.97;;;32.80;81.30;;;;;;5052698;28;20040;-82
2023/07/06 11:31:26;;;;;;;6.68;3.97;;;32.80;81.60;;;;;;5052001;28;20419;-80
2023/07/06 11:34:42;;;;;;;7.65;4.57;;;32.80;81.30;;;;;;5052723;28;20063;-80
2023/07/06 11:37:53;;;;;;;6.97;4.00;;;32.80;81.10;;;;;;5053386;28;20052;-83
2023/07/06 11:41:17;;;;;;;9.23;4.50;;;32.70;81.60;;;;;;5053056;28;20052;-81
2023/07/06 11:44:39;;;;;;;13.05;4.85;;;32.70;82.20;;;;;;5053112;28;20064;-83
2023/07/06 11:48:10;;;;;;;18.67;4.43;;;32.70;82.40;;;;;;5053353;28;20048;-82
2023/07/06 11:51:15;;;;;;;17.80;5.60;;;34.10;79.50;;;;;;5051445;28;20040;-81
2023/07/06 11:58:28;;;;;;;8.82;4.63;;;35.70;75.50;;;;;;5045414;28;20200;-82
2023/07/06 12:01:46;;;;;;;11.50;4.43;;;36.10;74.50;;;;;;5052470;28;20044;-84
2023/07/06 12:04:50;;;;;;;9.60;4.50;;;36.10;74.50;;;;;;5052731;28;20048;-84
2023/07/06 12:08:00;;;;;;;10.82;4.63;;;36.10;74.60;;;;;;5038617;28;20040;-80
2023/07/06 12:11:14;;;;;;;12.57;4.80;;;36.00;75.00;;;;;;5051601;28;20048;-82
2023/07/06 12:14:20;;;;;;;13.05;5.90;;;36.20;75.10;;;;;;5051104;28;20052;-80
2023/07/06 12:17:27;;;;;;;13.10;6.75;;;36.20;75.20;;;;;;5051546;28;20103;-79
2023/07/06 12:20:32;;;;;;;16.15;7.07;;;36.00;75.00;;;;;;5051645;28;20064;-84
2023/07/06 12:23:38;;;;;;;19.75;5.88;;;36.20;74.70;;;;;;5051433;28;20048;-83
2023/07/06 12:26:57;;;;;;;13.20;5.55;;;36.40;73.40;;;;;;5051149;28;20524;-81
2023/07/06 12:30:06;;;;;;;15.82;5.65;;;36.40;72.80;;;;;;5051930;28;20040;-83
2023/07/06 12:33:22;;;;;;;16.77;6.13;;;36.80;72.70;;;;;;5050453;28;20531;-81
2023/07/06 12:36:33;;;;;;;12.40;6.18;;;36.50;74.00;;;;;;5052119;28;20197;-82
2023/07/06 12:39:41;;;;;;;19.70;6.65;;;36.30;74.90;;;;;;5050667;28;20504;-81
2023/07/06 12:42:45;;;;;;;12.80;6.00;;;36.20;74.10;;;;;;5051219;28;20036;-82
2023/07/06 12:45:52;;;;;;;12.15;5.70;;;36.40;73.80;;;;;;5051349;28;20047;-81
2023/07/06 12:48:59;;;;;;;21.27;7.13;;;36.60;73.90;;;;;;5051791;28;20048;-76
2023/07/06 12:52:04;;;;;;;12.82;6.20;;;37.10;73.40;;;;;;5050610;28;20052;-74
2023/07/06 12:55:15;;;;;;;16.17;7.15;;;37.20;72.20;;;;;;5050389;28;20051;-76
2023/07/06 12:58:34;;;;;;;17.48;7.22;;;36.80;72.40;;;;;;5050475;28;20043;-75
2023/07/06 13:01:46;;;;;;;11.60;6.70;;;35.80;74.80;;;;;;5050393;28;20044;-75
2023/07/06 13:04:50;;;;;;;15.75;7.47;;;35.20;76.70;;;;;;5050145;28;20044;-73
2023/07/06 13:07:55;;;;;;;13.05;7.20;;;34.60;77.20;;;;;;5053159;28;20043;-76
2023/07/06 13:11:02;;;;;;;12.05;6.45;;;34.30;78.00;;;;;;5053451;28;20043;-73
2023/07/06 13:14:07;;;;;;;13.75;6.88;;;33.90;79.10;;;;;;5053931;28;20048;-74
2023/07/06 13:17:18;;;;;;;10.73;6.72;;;33.70;80.10;;;;;;5054264;28;20103;-74
2023/07/06 13:20:22;;;;;;;14.30;6.90;;;33.50;80.00;;;;;;5052820;28;20056;-76
2023/07/06 13:23:28;;;;;;;12.50;7.03;;;33.40;80.00;;;;;;5054272;28;20051;-74
2023/07/06 13:26:32;;;;;;;12.45;6.95;;;33.30;79.20;;;;;;5053611;28;20401;-77
2023/07/06 13:29:35;;;;;;;12.13;6.78;;;33.10;79.60;;;;;;5053751;28;20071;-75
2023/07/06 13:32:43;;;;;;;15.02;6.57;;;33.00;79.40;;;;;;5053397;28;20052;-74
2023/07/06 13:35:47;;;;;;;10.50;6.40;;;33.00;80.10;;;;;;5053325;28;20135;-75
2023/07/06 13:38:51;;;;;;;13.23;6.50;;;32.90;79.70;;;;;;5053654;28;20044;-77
2023/07/06 13:41:55;;;;;;;12.85;6.30;;;32.80;79.30;;;;;;5053741;28;20400;-74
2023/07/06 13:45:00;;;;;;;12.50;6.10;;;32.80;79.20;;;;;;5053422;28;20048;-74
2023/07/06 13:48:04;;;;;;;11.18;5.47;;;32.70;79.50;;;;;;5053249;28;20495;-74
2023/07/06 13:51:10;;;;;;;16.98;6.53;;;32.70;78.10;;;;;;5053325;28;20048;-75
2023/07/06 13:54:15;;;;;;;10.43;4.93;;;32.60;77.60;;;;;;5053446;28;20063;-75
2023/07/06 13:57:20;;;;;;;9.60;4.45;;;32.60;77.40;;;;;;5052945;28;20056;-73
2023/07/06 14:00:27;;;;;;;14.65;5.90;;;32.50;76.20;;;;;;5052892;28;20055;-75
2023/07/06 14:03:32;;;;;;;11.90;5.95;;;32.50;76.70;;;;;;5052941;28;20036;-74
2023/07/06 14:06:36;;;;;;;6.38;4.45;;;32.50;77.30;;;;;;5052952;28;20047;-74
2023/07/06 14:09:40;;;;;;;12.38;5.55;;;32.50;77.50;;;;;;5052769;28;20040;-75
2023/07/06 14:12:49;;;;;;;9.27;4.90;;;32.50;76.80;;;;;;5052695;28;20067;-74
2023/07/06 14:15:53;;;;;;;14.02;4.97;;;32.50;76.40;;;;;;5052550;28;20067;-75
2023/07/06 14:18:57;;;;;;;11.98;5.22;;;32.40;76.30;;;;;;5052039;28;20044;-73
2023/07/06 14:22:01;;;;;;;6.22;4.47;;;32.40;76.60;;;;;;5052681;28;20052;-74
2023/07/06 14:25:22;;;;;;;10.02;4.47;;;32.40;74.90;;;;;;5051825;28;20048;-74
2023/07/06 14:28:30;;;;;;;7.82;4.45;;;32.40;75.70;;;;;;5052623;28;20048;-75
2023/07/06 14:31:34;;;;;;;7.60;4.68;;;32.40;75.60;;;;;;5052646;28;20048;-74
2023/07/06 14:34:38;;;;;;;13.40;4.70;;;32.30;75.20;;;;;;5052571;28;20076;-75
2023/07/06 14:37:43;;;;;;;7.70;4.30;;;32.30;75.60;;;;;;5052516;28;20044;-76
2023/07/06 14:40:48;;;;;;;9.25;4.25;;;32.30;74.40;;;;;;5051513;28;20055;-73
2023/07/06 14:43:51;;;;;;;13.20;4.40;;;32.30;72.30;;;;;;5052358;28;20044;-74
2023/07/06 14:46:55;;;;;;;7.90;4.15;;;32.60;72.10;;;;;;5051150;28;20051;-73
2023/07/06 14:50:00;;;;;;;12.10;4.75;;;34.20;69.40;;;;;;5052243;28;20056;-75
2023/07/06 14:53:05;;;;;;;22.25;5.43;;;35.20;68.10;;;;;;5050525;28;20195;-77
2023/07/06 14:56:09;;;;;;;10.73;4.30;;;35.70;68.30;;;;;;5051031;28;20051;-74
2023/07/06 14:59:13;;;;;;;10.30;4.30;;;36.40;66.50;;;;;;5051189;28;20511;-72
2023/07/06 15:02:18;;;;;;;10.88;4.22;;;36.80;65.70;;;;;;5050387;28;20060;-73
2023/07/06 15:05:22;;;;;;;12.38;4.18;;;36.80;64.80;;;;;;5050736;28;20161;-74
2023/07/06 15:08:26;;;;;;;19.23;4.68;;;36.40;65.30;;;;;;5051819;28;20531;-75
2023/07/06 15:11:30;;;;;;;16.00;5.28;;;36.20;66.90;;;;;;5038005;28;20099;-73
2023/07/06 15:14:34;;;;;;;14.00;4.45;;;35.80;68.40;;;;;;5049843;28;20071;-72
2023/07/06 15:17:38;;;;;;;29.50;5.25;;;35.50;69.00;;;;;;5049628;28;20040;-72
2023/07/06 15:20:42;;;;;;;10.63;4.00;;;35.50;68.40;;;;;;5050461;28;20099;-72
2023/07/06 15:23:46;;;;;;;14.27;4.35;;;35.40;67.90;;;;;;5050957;28;20040;-72
2023/07/06 15:26:51;;;;;;;9.95;3.85;;;35.30;68.00;;;;;;5051531;28;20052;-71
2023/07/06 15:29:56;;;;;;;8.88;3.42;;;35.10;67.80;;;;;;5050763;28;20072;-72
2023/07/06 15:33:00;;;;;;;11.95;3.92;;;35.30;67.70;;;;;;5050928;28;20496;-72
2023/07/06 15:36:05;;;;;;;22.80;5.22;;;35.10;68.00;;;;;;5051149;28;20051;-74
2023/07/06 15:39:09;;;;;;;8.80;3.95;;;35.30;68.60;;;;;;5051179;28;20056;-71
2023/07/06 15:42:13;;;;;;;12.07;4.38;;;35.00;69.40;;;;;;5050303;28;20040;-70
2023/07/06 15:45:16;;;;;;;15.38;4.78;;;35.20;69.40;;;;;;5050752;28;20043;-70
2023/07/06 15:48:20;;;;;;;9.70;4.20;;;34.60;70.20;;;;;;5050747;28;20392;-70
2023/07/06 15:51:25;;;;;;;16.75;4.35;;;34.10;72.20;;;;;;5050120;28;20044;-70
2023/07/06 15:54:29;;;;;;;6.55;3.33;;;33.60;73.10;;;;;;5050789;28;20060;-71
2023/07/06 15:57:33;;;;;;;5.65;3.17;;;33.20;74.50;;;;;;5050836;28;20036;-71
2023/07/06 16:00:37;;;;;;;21.73;4.28;;;32.80;75.00;;;;;;5050716;28;20050;-71
2023/07/06 16:03:41;;;;;;;8.52;3.67;;;32.50;75.70;;;;;;5051088;28;20036;-71
2023/07/06 16:06:45;;;;;;;12.10;4.05;;;32.30;76.40;;;;;;5050930;28;20043;-70